Terminal Aerodrome Forecast
Issued by NWS Cleveland, OH

Home | Current Version | Previous Version | Text Only | Print | Product List | Glossary Off
Versions: 1 2 3 4 5 6 7 8 9 10 11 12 13 14 15 16 17 18 19 20 21

000
FTUS41 KCLE 221700
TAFYNG
TAF
KYNG 221731Z 2218/2318 13008KT P6SM BKN045 OVC120
     FM230700 13012KT 4SM BR VCSH SCT025 OVC035
      TEMPO 2312/2316 4SM -SHRA BR SCT015 OVC025
     FM231600 15010G18KT 5SM BR VCSH SCT008 OVC012=

USA.gov is the U.S. government's official web portal to all federal, state and local government web resources and services.